Time;durP1;ratioP1;P1;durP2;ratioP2;P2;SDS_P1;SDS_P2;PMS_P1;PMS_P2;Temp;Humidity;BMP_temperature;BMP_pressure;BME280_temperature;BME280_humidity;BME280_pressure;Samples;Min_cycle;Max_cycle;Signal;HPM_P1;HPM_P2
2022/04/21 00:00:06;;;;;;;9.30;5.07;;;8.10;99.90;;;;;;5053941;28;20026;-53
2022/04/21 00:02:33;;;;;;;10.30;4.90;;;8.10;99.90;;;;;;5052892;28;20017;-55
2022/04/21 00:04:59;;;;;;;13.60;5.38;;;8.20;99.90;;;;;;5052560;28;20029;-54
2022/04/21 00:07:25;;;;;;;12.50;5.10;;;8.20;99.90;;;;;;5052418;28;20599;-54
2022/04/21 00:09:51;;;;;;;11.63;5.20;;;8.10;99.90;;;;;;5051044;28;20063;-54
2022/04/21 00:12:17;;;;;;;10.65;5.43;;;8.20;99.90;;;;;;5052427;28;20079;-53
2022/04/21 00:14:42;;;;;;;11.50;4.95;;;8.10;99.90;;;;;;5052925;28;20108;-53
2022/04/21 00:17:08;;;;;;;12.52;5.03;;;8.10;99.90;;;;;;5053151;28;20029;-54
2022/04/21 00:19:34;;;;;;;8.23;4.20;;;8.20;99.90;;;;;;5052319;28;20025;-54
2022/04/21 00:24:44;;;;;;;11.20;5.00;;;8.10;99.90;;;;;;5053030;28;20043;-54
2022/04/21 00:27:11;;;;;;;12.60;4.40;;;8.10;99.90;;;;;;5052524;28;20033;-54
2022/04/21 00:29:38;;;;;;;8.98;4.97;;;8.00;99.90;;;;;;5052085;28;20037;-53
2022/04/21 00:32:04;;;;;;;12.40;5.05;;;8.00;99.90;;;;;;5051860;28;20036;-52
2022/04/21 00:34:32;;;;;;;7.75;4.20;;;7.90;99.90;;;;;;5051767;28;20052;-54
2022/04/21 00:36:57;;;;;;;6.65;4.03;;;7.90;99.90;;;;;;5052237;28;20491;-53
2022/04/21 00:39:23;;;;;;;10.45;4.30;;;7.90;99.90;;;;;;5052248;28;20120;-53
2022/04/21 00:41:48;;;;;;;10.25;5.03;;;7.90;99.90;;;;;;5051882;28;20048;-55
2022/04/21 00:44:14;;;;;;;12.10;4.30;;;7.90;99.90;;;;;;5052407;28;20056;-54
2022/04/21 00:46:41;;;;;;;11.95;4.65;;;8.00;99.90;;;;;;5051910;28;20054;-55
2022/04/21 00:49:08;;;;;;;11.27;4.32;;;8.00;99.90;;;;;;5051951;28;20033;-54
2022/04/21 00:51:34;;;;;;;7.63;4.22;;;8.00;99.90;;;;;;5051892;28;20033;-55
2022/04/21 00:54:00;;;;;;;9.90;4.97;;;7.90;99.90;;;;;;5052240;28;20040;-55
2022/04/21 00:56:26;;;;;;;14.00;4.50;;;7.80;99.90;;;;;;5054958;28;20035;-54
2022/04/21 00:58:52;;;;;;;8.38;4.50;;;7.80;99.90;;;;;;5051530;28;20020;-55
2022/04/21 01:04:21;;;;;;;10.20;4.72;;;7.70;99.90;;;;;;4990193;28;20487;-57
2022/04/21 01:06:47;;;;;;;9.80;4.47;;;7.60;99.90;;;;;;5039050;28;20044;-53
2022/04/21 01:09:13;;;;;;;12.85;5.00;;;7.70;99.90;;;;;;5067179;28;20033;-54
2022/04/21 01:11:39;;;;;;;9.23;4.70;;;7.60;99.90;;;;;;5051475;28;20033;-55
2022/04/21 01:14:05;;;;;;;13.32;5.00;;;7.60;99.90;;;;;;5054136;28;20086;-54
2022/04/21 01:16:30;;;;;;;11.98;4.40;;;7.50;99.90;;;;;;5051539;28;20033;-53
2022/04/21 01:18:56;;;;;;;11.73;5.55;;;7.60;99.90;;;;;;5050072;28;20485;-53
2022/04/21 01:21:22;;;;;;;9.00;4.50;;;7.50;99.90;;;;;;5051251;28;20029;-54
2022/04/21 01:23:48;;;;;;;11.02;4.65;;;7.60;99.90;;;;;;5049939;28;20017;-53
2022/04/21 01:26:16;;;;;;;12.75;5.90;;;7.50;99.90;;;;;;5051508;28;20028;-53
2022/04/21 01:28:43;;;;;;;14.70;4.85;;;7.40;99.90;;;;;;5051193;28;20090;-54
2022/04/21 01:31:08;;;;;;;11.50;4.72;;;7.30;99.90;;;;;;5050945;28;20385;-53
2022/04/21 01:33:34;;;;;;;13.38;4.75;;;7.30;99.90;;;;;;5051991;28;20033;-53
2022/04/21 01:35:59;;;;;;;9.55;5.50;;;7.30;99.90;;;;;;5050675;28;20047;-52
2022/04/21 01:41:09;;;;;;;7.88;4.72;;;7.20;99.90;;;;;;5048408;28;20079;-53
2022/04/21 01:43:37;;;;;;;9.95;5.20;;;7.20;99.90;;;;;;5049762;28;20025;-53
2022/04/21 01:46:03;;;;;;;17.00;6.95;;;7.30;99.90;;;;;;5050830;28;20414;-54
2022/04/21 01:48:29;;;;;;;12.90;4.85;;;7.40;99.90;;;;;;5051742;28;20033;-53
2022/04/21 01:50:55;;;;;;;14.15;6.25;;;7.40;99.90;;;;;;5056960;28;20025;-55
2022/04/21 01:53:20;;;;;;;9.35;5.05;;;7.40;99.90;;;;;;5050685;28;20040;-53
2022/04/21 01:55:49;;;;;;;13.65;5.63;;;7.40;99.90;;;;;;5052779;28;20525;-54
2022/04/21 01:58:15;;;;;;;16.00;6.38;;;7.40;99.90;;;;;;5050937;28;20060;-52
2022/04/21 02:00:40;;;;;;;14.15;5.50;;;7.40;99.90;;;;;;5050269;28;20434;-53
2022/04/21 02:03:06;;;;;;;13.95;5.57;;;7.40;99.90;;;;;;5035142;28;20056;-54
2022/04/21 02:05:33;;;;;;;13.23;6.43;;;7.40;99.90;;;;;;5045427;28;20461;-54
2022/04/21 02:08:00;;;;;;;14.25;6.10;;;7.50;99.90;;;;;;5044949;28;20026;-55
2022/04/21 02:10:26;;;;;;;12.37;6.27;;;7.50;99.90;;;;;;5033916;28;20056;-53
2022/04/21 02:12:52;;;;;;;15.43;6.07;;;7.50;99.90;;;;;;5036586;28;20393;-53
2022/04/21 02:15:18;;;;;;;16.70;5.93;;;7.50;99.90;;;;;;5031948;28;20029;-54
2022/04/21 02:17:44;;;;;;;12.30;6.47;;;7.50;99.90;;;;;;5049601;28;20033;-53
2022/04/21 02:20:14;;;;;;;13.27;5.80;;;7.50;99.90;;;;;;5053283;28;20079;-53
2022/04/21 02:22:40;;;;;;;12.80;5.65;;;7.50;99.90;;;;;;5049922;28;20029;-54
2022/04/21 02:25:07;;;;;;;16.63;6.38;;;7.50;99.90;;;;;;5050224;28;20036;-54
2022/04/21 02:27:33;;;;;;;17.52;6.63;;;7.50;99.90;;;;;;5050281;28;20029;-54
2022/04/21 02:29:59;;;;;;;16.38;6.72;;;7.50;99.90;;;;;;5052250;28;20029;-54
2022/04/21 02:32:25;;;;;;;9.32;5.93;;;7.60;99.90;;;;;;5050234;28;20025;-55
2022/04/21 02:34:53;;;;;;;13.95;6.78;;;7.50;99.90;;;;;;5049806;28;20053;-54
2022/04/21 02:37:21;;;;;;;16.88;6.68;;;7.40;99.90;;;;;;5050140;28;20083;-52
2022/04/21 02:39:47;;;;;;;15.98;7.03;;;7.40;99.90;;;;;;5050451;28;20295;-53
2022/04/21 02:42:12;;;;;;;17.73;6.85;;;7.30;99.90;;;;;;5050036;28;20061;-54
2022/04/21 02:44:38;;;;;;;18.35;6.78;;;7.20;99.90;;;;;;5049794;28;20412;-54
2022/04/21 02:47:08;;;;;;;15.20;7.18;;;7.30;99.90;;;;;;5050350;28;20032;-54
2022/04/21 02:49:37;;;;;;;17.77;6.88;;;7.30;99.90;;;;;;5049512;28;20110;-54
2022/04/21 02:52:07;;;;;;;9.50;6.07;;;7.30;99.90;;;;;;5052802;28;20474;-53
2022/04/21 02:57:20;;;;;;;19.40;7.38;;;7.30;99.90;;;;;;5050279;28;20487;-53
2022/04/21 02:59:59;;;;;;;14.07;6.35;;;7.20;99.90;;;;;;5050036;28;20025;-53
2022/04/21 03:02:25;;;;;;;16.33;6.43;;;7.20;99.90;;;;;;5049981;28;20234;-55
2022/04/21 03:04:52;;;;;;;18.42;7.82;;;7.10;99.90;;;;;;5051142;28;20111;-54
2022/04/21 03:07:20;;;;;;;14.77;6.57;;;7.10;99.90;;;;;;5053747;28;20438;-54
2022/04/21 03:09:46;;;;;;;21.38;8.68;;;7.10;99.90;;;;;;5050123;28;20087;-54
2022/04/21 03:12:12;;;;;;;19.02;8.07;;;7.00;99.90;;;;;;5054003;28;20033;-54
2022/04/21 03:14:40;;;;;;;17.42;7.25;;;7.10;99.90;;;;;;5058799;28;20033;-54
2022/04/21 03:17:08;;;;;;;14.48;6.82;;;7.10;99.90;;;;;;5049808;28;20457;-53
2022/04/21 03:19:34;;;;;;;22.27;8.10;;;7.10;99.90;;;;;;5049885;28;20032;-54
2022/04/21 03:24:45;;;;;;;13.30;6.53;;;7.10;99.90;;;;;;5049526;28;20059;-54
2022/04/21 03:27:11;;;;;;;16.58;7.32;;;7.10;99.90;;;;;;5049210;28;20033;-54
2022/04/21 03:29:39;;;;;;;18.50;8.13;;;7.10;99.90;;;;;;5049910;28;20381;-55
2022/04/21 03:32:10;;;;;;;18.58;9.10;;;7.10;99.90;;;;;;5049628;28;20386;-54
2022/04/21 03:34:40;;;;;;;25.55;7.75;;;7.00;99.90;;;;;;5049935;28;20049;-54
2022/04/21 03:37:07;;;;;;;16.30;8.27;;;7.00;99.90;;;;;;5049286;28;20543;-53
2022/04/21 03:39:35;;;;;;;18.30;8.20;;;7.00;99.90;;;;;;5050370;28;20385;-53
2022/04/21 03:42:01;;;;;;;25.65;9.00;;;6.90;99.90;;;;;;5050930;28;20424;-53
2022/04/21 03:44:27;;;;;;;17.30;9.07;;;6.90;99.90;;;;;;5054276;28;20445;-54
2022/04/21 03:46:57;;;;;;;17.88;7.05;;;6.80;99.90;;;;;;5054421;28;20045;-54
2022/04/21 03:49:24;;;;;;;16.25;7.75;;;6.80;99.90;;;;;;5053823;28;20061;-53
2022/04/21 03:51:50;;;;;;;15.50;7.60;;;6.80;99.90;;;;;;5053776;28;20112;-52
2022/04/21 03:54:16;;;;;;;21.20;8.55;;;6.80;99.90;;;;;;5057503;28;20117;-54
2022/04/21 03:56:41;;;;;;;23.58;9.98;;;6.70;99.90;;;;;;5053034;28;20021;-53
2022/04/21 03:59:07;;;;;;;18.45;7.85;;;6.70;99.90;;;;;;5085535;28;20021;-54
2022/04/21 04:01:33;;;;;;;18.25;8.82;;;6.70;99.90;;;;;;5053572;28;20063;-54
2022/04/21 04:03:59;;;;;;;25.15;9.05;;;6.70;99.90;;;;;;5052473;28;20028;-53
2022/04/21 04:11:53;;;;;;;20.35;9.40;;;6.60;99.90;;;;;;5051513;28;20043;-54
2022/04/21 04:14:21;;;;;;;23.80;11.40;;;6.60;99.90;;;;;;5054424;28;20368;-54
2022/04/21 04:16:47;;;;;;;;;;;6.60;99.90;;;;;;5053796;28;20025;-54
2022/04/21 04:19:12;;;;;;;22.17;10.38;;;6.60;99.90;;;;;;5053038;28;19962;-54
2022/04/21 04:21:38;;;;;;;18.35;9.75;;;6.60;99.90;;;;;;5053008;28;20105;-52
2022/04/21 04:24:04;;;;;;;23.92;10.50;;;6.60;99.90;;;;;;5053607;28;20404;-54
2022/04/21 04:26:33;;;;;;;25.92;11.52;;;6.50;99.90;;;;;;5053328;28;20504;-53
2022/04/21 04:28:59;;;;;;;24.63;12.07;;;6.50;99.90;;;;;;5056872;28;20388;-53
2022/04/21 04:31:25;;;;;;;22.00;10.60;;;6.50;99.90;;;;;;5073125;28;20519;-54
2022/04/21 04:33:51;;;;;;;26.45;11.88;;;6.50;99.90;;;;;;5059347;28;20037;-53
2022/04/21 04:36:16;;;;;;;24.75;10.60;;;6.50;99.90;;;;;;5053268;28;20029;-54
2022/04/21 04:38:44;;;;;;;27.02;11.27;;;6.50;99.90;;;;;;5052326;28;20025;-54
2022/04/21 04:43:54;;;;;;;24.52;9.50;;;6.50;99.90;;;;;;5053379;28;20087;-53
2022/04/21 04:46:35;;;;;;;24.88;10.35;;;6.60;99.90;;;;;;5052977;28;20029;-53
2022/04/21 04:49:08;;;;;;;22.90;11.07;;;6.60;99.90;;;;;;5053128;28;20024;-54
2022/04/21 04:51:37;;;;;;;20.77;10.10;;;6.50;99.90;;;;;;5052587;28;20114;-53
2022/04/21 04:54:07;;;;;;;20.63;11.20;;;6.50;99.90;;;;;;5052661;28;20543;-52
2022/04/21 04:56:33;;;;;;;27.60;13.02;;;6.50;99.90;;;;;;5052533;28;20102;-53
2022/04/21 04:59:00;;;;;;;25.23;12.38;;;6.50;99.90;;;;;;5052395;28;20112;-52
2022/04/21 05:01:28;;;;;;;25.52;11.63;;;6.50;99.90;;;;;;5052710;28;20078;-54
2022/04/21 05:04:04;;;;;;;25.42;11.48;;;6.60;99.90;;;;;;5061200;28;20024;-54
2022/04/21 05:06:38;;;;;;;28.80;11.95;;;6.60;99.90;;;;;;5072876;28;20398;-53
2022/04/21 05:09:12;;;;;;;23.15;12.07;;;6.60;99.90;;;;;;5057536;28;20033;-53
2022/04/21 05:11:38;;;;;;;23.23;11.43;;;6.70;99.90;;;;;;5060327;28;20040;-53
2022/04/21 05:14:07;;;;;;;24.08;11.30;;;6.80;99.90;;;;;;5057265;28;20063;-53
2022/04/21 05:16:33;;;;;;;16.88;9.43;;;6.80;99.90;;;;;;5054772;28;20033;-53
2022/04/21 05:18:58;;;;;;;23.15;10.20;;;6.90;99.90;;;;;;5052766;28;20048;-52
2022/04/21 05:21:25;;;;;;;24.02;10.90;;;7.00;99.90;;;;;;5052168;28;20485;-54
2022/04/21 05:23:57;;;;;;;19.92;10.85;;;7.00;99.90;;;;;;5052861;28;20024;-53
2022/04/21 05:26:23;;;;;;;25.77;11.98;;;7.10;99.90;;;;;;5069617;28;20032;-51
2022/04/21 05:28:49;;;;;;;20.83;10.23;;;7.20;99.90;;;;;;5053457;28;20040;-54
2022/04/21 05:31:16;;;;;;;24.02;11.00;;;7.30;99.90;;;;;;5051963;28;20028;-53
2022/04/21 05:33:42;;;;;;;20.60;10.25;;;7.40;99.90;;;;;;5051513;28;20450;-53
2022/04/21 05:36:09;;;;;;;24.80;10.82;;;7.50;99.90;;;;;;5052089;28;20041;-53
2022/04/21 05:38:37;;;;;;;26.83;10.52;;;7.60;99.90;;;;;;5051498;28;20033;-53
2022/04/21 05:41:03;;;;;;;19.83;9.50;;;7.80;99.90;;;;;;5052140;28;20124;-54
2022/04/21 05:43:39;;;;;;;16.42;9.00;;;7.90;99.90;;;;;;5053026;28;20032;-54
2022/04/21 05:46:06;;;;;;;20.17;9.95;;;8.00;99.90;;;;;;5051886;28;20033;-53
2022/04/21 05:48:32;;;;;;;21.20;9.67;;;8.10;99.90;;;;;;5051616;28;20099;-54
2022/04/21 05:50:58;;;;;;;17.77;9.80;;;8.20;99.90;;;;;;5053682;28;20040;-53
2022/04/21 05:53:26;;;;;;;23.63;11.48;;;8.30;99.90;;;;;;5051693;28;20433;-52
2022/04/21 05:55:53;;;;;;;23.88;10.45;;;8.40;99.90;;;;;;5055128;28;20111;-54
2022/04/21 05:58:20;;;;;;;16.85;10.05;;;8.50;99.90;;;;;;5053708;28;20397;-54
2022/04/21 06:00:46;;;;;;;24.92;10.50;;;8.60;99.90;;;;;;5051297;28;20025;-53
2022/04/21 06:03:12;;;;;;;20.75;10.07;;;8.60;99.90;;;;;;5051669;28;20468;-54
2022/04/21 06:05:39;;;;;;;18.48;9.55;;;8.70;99.90;;;;;;5050574;28;20087;-53
2022/04/21 06:08:06;;;;;;;24.75;10.40;;;8.80;99.90;;;;;;5051422;28;20461;-54
2022/04/21 06:10:33;;;;;;;19.38;9.43;;;8.80;99.90;;;;;;5050494;28;20068;-54
2022/04/21 06:13:01;;;;;;;23.17;10.98;;;8.90;99.90;;;;;;5050343;28;20072;-53
2022/04/21 06:15:27;;;;;;;23.48;9.82;;;8.90;99.90;;;;;;5055964;28;20061;-52
2022/04/21 06:17:52;;;;;;;23.02;11.38;;;9.00;99.90;;;;;;5050504;28;20393;-55
2022/04/21 06:20:18;;;;;;;18.27;11.07;;;9.10;99.90;;;;;;5050808;28;20041;-53
2022/04/21 06:22:44;;;;;;;17.20;9.18;;;9.20;99.90;;;;;;5055989;28;20031;-53
2022/04/21 06:25:10;;;;;;;17.50;8.32;;;9.30;99.90;;;;;;5070824;28;20362;-53
2022/04/21 06:27:35;;;;;;;21.13;10.70;;;9.30;99.90;;;;;;5063730;28;20020;-53
2022/04/21 06:30:01;;;;;;;20.92;9.70;;;9.40;99.90;;;;;;5062374;28;20086;-54
2022/04/21 06:32:27;;;;;;;18.75;9.70;;;9.50;99.90;;;;;;5050444;28;20036;-54
2022/04/21 06:34:54;;;;;;;19.15;10.50;;;9.60;99.90;;;;;;5050654;28;20045;-54
2022/04/21 06:37:19;;;;;;;16.27;9.47;;;9.60;99.90;;;;;;5047725;28;20500;-53
2022/04/21 06:39:45;;;;;;;20.10;10.00;;;9.80;99.90;;;;;;5049485;28;20025;-54
2022/04/21 06:42:11;;;;;;;15.05;8.70;;;10.00;99.90;;;;;;5048605;28;20037;-53
2022/04/21 06:50:05;;;;;;;22.48;10.13;;;10.30;99.90;;;;;;5057992;28;20413;-53
2022/04/21 06:52:31;;;;;;;18.70;9.57;;;10.50;99.90;;;;;;5049435;28;20436;-55
2022/04/21 06:54:57;;;;;;;21.25;9.18;;;10.60;99.90;;;;;;5050550;28;20397;-52
2022/04/21 06:57:23;;;;;;;13.25;9.02;;;10.80;99.90;;;;;;5050330;28;20029;-53
2022/04/21 06:59:49;;;;;;;19.38;10.50;;;10.90;99.90;;;;;;5051284;28;20024;-54
2022/04/21 07:02:15;;;;;;;19.10;10.18;;;11.00;99.90;;;;;;5051329;28;20029;-53
2022/04/21 07:04:41;;;;;;;20.20;10.10;;;11.20;99.90;;;;;;5050036;28;20350;-53
2022/04/21 07:07:06;;;;;;;17.25;11.07;;;11.40;99.90;;;;;;5050684;28;20029;-54
2022/04/21 07:09:32;;;;;;;21.10;11.10;;;11.50;99.90;;;;;;5051565;28;20475;-54
2022/04/21 07:11:57;;;;;;;22.73;10.45;;;11.60;99.90;;;;;;5053864;28;20494;-54
2022/04/21 07:14:23;;;;;;;17.60;10.80;;;11.80;99.90;;;;;;5069710;28;20247;-53
2022/04/21 07:16:49;;;;;;;19.08;10.15;;;11.90;99.90;;;;;;5071336;28;20435;-53
2022/04/21 07:19:14;;;;;;;16.15;10.10;;;12.10;99.90;;;;;;5073147;28;20107;-53
2022/04/21 07:21:40;;;;;;;18.88;10.02;;;12.20;99.90;;;;;;5074851;28;20487;-54
2022/04/21 07:24:06;;;;;;;22.33;9.70;;;12.30;99.90;;;;;;5074348;28;20039;-54
2022/04/21 07:26:31;;;;;;;23.00;10.48;;;12.50;99.90;;;;;;5072715;28;20072;-53
2022/04/21 07:28:57;;;;;;;17.45;9.55;;;12.50;99.90;;;;;;5073904;28;20036;-54
2022/04/21 07:31:23;;;;;;;16.92;9.43;;;12.60;99.90;;;;;;5072706;28;20090;-54
2022/04/21 07:33:48;;;;;;;15.25;9.60;;;12.70;99.90;;;;;;5058462;28;20062;-52
2022/04/21 07:36:14;;;;;;;16.83;9.27;;;12.80;99.90;;;;;;5054316;28;20100;-55
2022/04/21 07:38:40;;;;;;;20.83;9.45;;;12.80;99.90;;;;;;5056746;28;20025;-55
2022/04/21 07:41:06;;;;;;;16.40;8.23;;;12.90;99.90;;;;;;5074533;28;20031;-55
2022/04/21 07:43:35;;;;;;;17.05;9.45;;;12.90;98.80;;;;;;5065625;28;20536;-55
2022/04/21 07:46:00;;;;;;;14.90;8.60;;;12.90;99.60;;;;;;5054242;28;20093;-54
2022/04/21 07:49:44;;;;;;;15.13;8.43;;;13.00;99.80;;;;;;5053971;28;20025;-54
2022/04/21 07:51:12;;;;;;;15.52;9.48;;;13.20;99.50;;;;;;5054335;28;20033;-54
2022/04/21 07:53:37;;;;;;;14.05;8.25;;;13.20;99.00;;;;;;5061576;28;20024;-55
2022/04/21 07:56:03;;;;;;;12.98;8.07;;;13.30;98.40;;;;;;5058779;28;20052;-54
2022/04/21 07:58:29;;;;;;;20.40;8.80;;;13.40;98.70;;;;;;5054498;28;20021;-55
2022/04/21 08:00:55;;;;;;;13.15;8.38;;;13.50;98.30;;;;;;5053185;28;20084;-54
2022/04/21 08:03:20;;;;;;;15.93;8.65;;;13.50;97.60;;;;;;5053216;28;20188;-54
2022/04/21 08:05:47;;;;;;;15.23;7.90;;;13.60;97.90;;;;;;5052786;28;20021;-54
2022/04/21 08:08:13;;;;;;;16.60;9.43;;;13.70;97.90;;;;;;5053345;28;20370;-54
2022/04/21 08:10:39;;;;;;;16.10;8.32;;;13.80;97.70;;;;;;5053906;28;20036;-62
2022/04/21 08:13:04;;;;;;;15.93;7.88;;;13.90;96.00;;;;;;5060341;28;20025;-54
2022/04/21 08:15:32;;;;;;;17.17;8.55;;;14.10;97.70;;;;;;5052955;28;20032;-56
2022/04/21 08:18:00;;;;;;;14.13;8.30;;;14.20;97.20;;;;;;5051476;28;20104;-55
2022/04/21 08:20:28;;;;;;;12.75;7.97;;;14.30;96.60;;;;;;5052657;28;20025;-55
2022/04/21 08:22:54;;;;;;;12.77;7.90;;;14.40;95.60;;;;;;5055390;28;20134;-55
2022/04/21 08:33:33;;;;;;;15.05;8.25;;;14.80;96.00;;;;;;5051943;28;20509;-55
2022/04/21 08:36:00;;;;;;;15.02;7.82;;;14.80;94.30;;;;;;5051693;28;20132;-55
2022/04/21 08:38:27;;;;;;;13.60;7.60;;;14.90;94.50;;;;;;5052142;28;20033;-54
2022/04/21 08:40:58;;;;;;;15.27;9.20;;;15.00;94.00;;;;;;5052118;28;20017;-54
2022/04/21 08:43:27;;;;;;;14.75;8.25;;;15.10;94.20;;;;;;5052264;28;20025;-54
2022/04/21 08:45:53;;;;;;;13.73;8.10;;;15.30;94.10;;;;;;5055016;28;20065;-54
2022/04/21 08:48:20;;;;;;;16.63;8.77;;;15.30;93.30;;;;;;5052511;28;20482;-53
2022/04/21 08:50:46;;;;;;;14.52;7.57;;;15.50;93.50;;;;;;5051910;28;20111;-54
2022/04/21 08:53:20;;;;;;;15.00;8.52;;;15.70;93.80;;;;;;5052591;28;20107;-55
2022/04/21 08:55:47;;;;;;;14.23;8.50;;;15.90;93.10;;;;;;5048457;28;20481;-54
2022/04/21 08:58:13;;;;;;;12.73;8.18;;;16.00;93.00;;;;;;5050459;28;20435;-54
2022/04/21 09:00:41;;;;;;;13.40;7.85;;;16.10;92.60;;;;;;5051673;28;20033;-53
2022/04/21 09:03:08;;;;;;;11.38;7.53;;;16.30;93.00;;;;;;5052588;28;20023;-55
2022/04/21 09:05:34;;;;;;;14.70;8.52;;;16.30;92.10;;;;;;5051246;28;20102;-55
2022/04/21 09:08:00;;;;;;;12.32;8.18;;;16.50;92.30;;;;;;5051928;28;20041;-54
2022/04/21 09:10:28;;;;;;;14.75;8.57;;;16.60;92.10;;;;;;5051073;28;20021;-55
2022/04/21 09:12:59;;;;;;;13.32;8.45;;;16.70;92.10;;;;;;5050979;28;20048;-54
2022/04/21 09:15:32;;;;;;;12.23;8.20;;;16.90;91.60;;;;;;5051039;28;20029;-54
2022/04/21 09:17:59;;;;;;;14.55;8.40;;;17.10;91.40;;;;;;5052337;28;20048;-54
2022/04/21 09:20:31;;;;;;;15.83;8.27;;;17.20;90.80;;;;;;5066120;28;20055;-55
2022/04/21 09:22:59;;;;;;;18.02;8.90;;;17.50;90.40;;;;;;5060737;28;20496;-55
2022/04/21 09:25:26;;;;;;;13.85;8.60;;;17.70;89.40;;;;;;5052224;28;20025;-54
2022/04/21 09:27:53;;;;;;;14.75;8.43;;;17.90;90.00;;;;;;5052557;28;20068;-55
2022/04/21 09:30:19;;;;;;;13.70;8.03;;;18.20;88.80;;;;;;5052680;28;20478;-55
2022/04/21 09:32:57;;;;;;;15.45;8.93;;;18.50;86.30;;;;;;5050357;28;20265;-55
2022/04/21 09:35:28;;;;;;;15.73;7.28;;;18.70;84.80;;;;;;5051983;28;20055;-56
2022/04/21 09:37:56;;;;;;;12.10;8.23;;;19.00;87.40;;;;;;5052130;28;20477;-55
2022/04/21 09:40:27;;;;;;;10.52;7.13;;;19.20;84.50;;;;;;5059817;28;20024;-55
2022/04/21 09:42:57;;;;;;;14.27;7.13;;;19.60;81.40;;;;;;5061467;28;20528;-54
2022/04/21 09:48:17;;;;;;;12.52;7.60;;;19.80;79.50;;;;;;5072008;28;20519;-55
2022/04/21 09:50:43;;;;;;;;;;;20.30;76.80;;;;;;5072029;28;20038;-55
2022/04/21 09:53:09;;;;;;;15.80;8.45;;;20.50;74.70;;;;;;5072123;28;20280;-55
2022/04/21 09:55:35;;;;;;;15.32;8.15;;;20.60;74.30;;;;;;5071682;28;20024;-56
2022/04/21 09:58:06;;;;;;;13.55;8.82;;;21.00;72.60;;;;;;5071754;28;20028;-53
2022/04/21 10:00:36;;;;;;;14.55;8.30;;;21.30;69.30;;;;;;5071709;28;20048;-55
2022/04/21 10:03:05;;;;;;;13.95;7.88;;;21.50;69.70;;;;;;5057371;28;20056;-55
2022/04/21 10:05:32;;;;;;;12.80;8.23;;;21.80;71.00;;;;;;5064070;28;20044;-55
2022/04/21 10:08:05;;;;;;;12.52;8.82;;;21.80;68.40;;;;;;5071629;28;20031;-55
2022/04/21 10:10:32;;;;;;;11.18;8.32;;;21.40;66.80;;;;;;5071699;28;20499;-55
2022/04/21 10:13:00;;;;;;;16.50;9.20;;;22.00;65.90;;;;;;5071381;28;20393;-55
2022/04/21 10:15:27;;;;;;;11.52;7.93;;;22.00;64.10;;;;;;5071240;28;20021;-55
2022/04/21 10:17:53;;;;;;;;;;;22.40;65.00;;;;;;5071751;28;20127;-55
2022/04/21 10:20:23;;;;;;;13.00;9.13;;;22.90;61.70;;;;;;5071556;28;19947;-55
2022/04/21 10:22:49;;;;;;;13.63;9.45;;;23.00;60.50;;;;;;5054627;28;20025;-55
2022/04/21 10:25:15;;;;;;;11.68;7.32;;;23.10;63.20;;;;;;5090245;28;20032;-55
2022/04/21 10:27:44;;;;;;;13.65;8.68;;;23.00;58.50;;;;;;5071146;28;20032;-57
2022/04/21 10:30:29;;;;;;;9.50;7.45;;;23.20;57.50;;;;;;5071162;28;20405;-56
2022/04/21 10:32:58;;;;;;;11.23;7.53;;;23.20;57.30;;;;;;5071834;28;20027;-55
2022/04/21 10:35:23;;;;;;;11.52;8.20;;;23.30;58.30;;;;;;5071019;28;20051;-55
2022/04/21 10:38:19;;;;;;;13.40;7.53;;;23.70;54.50;;;;;;5057850;28;20021;-56
2022/04/21 10:41:06;;;;;;;10.93;7.80;;;23.80;54.30;;;;;;5044255;28;20029;-56
2022/04/21 10:43:50;;;;;;;10.82;7.50;;;23.70;55.30;;;;;;5051172;28;20029;-55
2022/04/21 10:46:29;;;;;;;11.15;7.68;;;23.80;55.40;;;;;;5038365;28;20029;-55
2022/04/21 10:48:55;;;;;;;10.18;7.88;;;23.70;54.50;;;;;;5031141;28;20516;-55
2022/04/21 10:57:32;;;;;;;15.48;7.38;;;23.90;52.30;;;;;;5055107;28;20044;-55
2022/04/21 11:00:00;;;;;;;10.32;7.78;;;23.80;51.70;;;;;;5055154;28;20087;-55
2022/04/21 11:02:42;;;;;;;10.40;7.03;;;24.10;51.90;;;;;;5054737;28;20087;-55
2022/04/21 11:05:27;;;;;;;10.38;7.05;;;24.50;51.20;;;;;;5033831;28;20117;-55
2022/04/21 11:07:55;;;;;;;10.50;7.55;;;24.60;51.70;;;;;;5035192;28;20511;-55
2022/04/21 11:10:28;;;;;;;12.75;7.75;;;24.10;52.40;;;;;;5037767;28;20115;-55
2022/04/21 11:12:54;;;;;;;10.85;6.53;;;23.90;50.90;;;;;;5087347;28;20033;-55
2022/04/21 11:15:30;;;;;;;9.55;6.55;;;24.10;52.50;;;;;;5054853;28;20396;-56
2022/04/21 11:18:00;;;;;;;11.40;7.53;;;24.50;50.40;;;;;;5055478;28;20196;-56
2022/04/21 11:20:26;;;;;;;11.95;6.93;;;24.40;49.80;;;;;;5055100;28;20299;-55
2022/04/21 11:22:52;;;;;;;11.73;8.40;;;24.30;49.90;;;;;;5054632;28;20021;-55
2022/04/21 11:25:18;;;;;;;13.10;7.95;;;23.50;50.10;;;;;;5054685;28;20029;-55
2022/04/21 11:27:45;;;;;;;13.40;7.20;;;23.10;48.70;;;;;;5054527;28;20033;-55
2022/04/21 11:30:13;;;;;;;10.27;6.78;;;22.50;50.90;;;;;;5042822;28;20072;-55
2022/04/21 11:32:48;;;;;;;10.00;7.20;;;22.60;51.90;;;;;;5050025;28;20053;-55
2022/04/21 11:35:16;;;;;;;8.77;6.20;;;22.40;49.70;;;;;;5054202;28;20061;-55
2022/04/21 11:37:58;;;;;;;9.40;6.15;;;22.00;51.90;;;;;;5050021;28;20112;-54
2022/04/21 11:40:27;;;;;;;7.95;6.00;;;22.10;53.90;;;;;;5054389;28;20500;-55
2022/04/21 11:42:55;;;;;;;9.65;5.88;;;21.80;53.50;;;;;;5054287;28;20110;-56
2022/04/21 11:45:26;;;;;;;10.32;6.13;;;21.50;52.30;;;;;;5054260;28;20029;-54
2022/04/21 11:47:53;;;;;;;8.70;5.25;;;21.70;53.80;;;;;;5054173;28;20044;-55
2022/04/21 11:50:23;;;;;;;9.05;5.72;;;22.20;52.40;;;;;;5054457;28;20553;-54
2022/04/21 11:52:52;;;;;;;9.95;5.72;;;22.50;50.60;;;;;;5057213;28;20046;-55
2022/04/21 11:55:28;;;;;;;10.00;6.65;;;22.90;49.60;;;;;;5074164;28;20439;-56
2022/04/21 11:57:55;;;;;;;8.75;6.00;;;22.70;50.20;;;;;;5074105;28;20044;-55
2022/04/21 12:08:44;;;;;;;8.25;4.88;;;23.20;49.20;;;;;;5034001;28;20037;-56
2022/04/21 12:11:10;;;;;;;9.23;5.25;;;24.10;48.10;;;;;;5033871;28;20037;-55
2022/04/21 12:13:37;;;;;;;7.63;5.00;;;25.00;48.00;;;;;;5033898;28;20040;-56
2022/04/21 12:16:03;;;;;;;6.95;5.03;;;25.90;44.50;;;;;;5033828;28;20329;-56
2022/04/21 12:18:47;;;;;;;10.30;6.00;;;26.30;44.80;;;;;;5033666;28;20026;-56
2022/04/21 12:21:13;;;;;;;6.55;4.28;;;26.90;44.00;;;;;;5033697;28;20029;-56
2022/04/21 12:23:39;;;;;;;8.18;4.72;;;26.20;43.20;;;;;;5033983;28;20029;-56
2022/04/21 12:26:08;;;;;;;7.20;4.90;;;25.10;40.90;;;;;;5069161;28;20408;-56
2022/04/21 12:28:47;;;;;;;8.23;5.07;;;24.90;41.00;;;;;;5106236;28;20031;-56
2022/04/21 12:31:18;;;;;;;7.90;4.10;;;25.60;41.10;;;;;;5072025;28;20033;-57
2022/04/21 12:33:44;;;;;;;9.35;5.00;;;26.60;39.90;;;;;;5064305;28;20107;-57
2022/04/21 12:36:09;;;;;;;6.07;3.63;;;26.90;41.10;;;;;;5073189;28;20115;-57
2022/04/21 12:39:00;;;;;;;5.70;4.32;;;27.60;40.80;;;;;;5053533;28;20028;-55
2022/04/21 12:41:27;;;;;;;5.40;3.85;;;28.50;38.60;;;;;;5052901;28;20116;-55
2022/04/21 12:43:53;;;;;;;6.82;3.75;;;29.40;37.20;;;;;;5065941;28;20024;-55
2022/04/21 12:46:20;;;;;;;4.23;3.80;;;29.40;37.50;;;;;;5073409;28;20116;-55
2022/04/21 12:48:49;;;;;;;4.63;3.28;;;29.70;34.80;;;;;;5073096;28;20028;-57
2022/04/21 12:51:22;;;;;;;5.18;4.68;;;29.70;36.60;;;;;;5073457;28;20038;-55
2022/04/21 12:53:58;;;;;;;4.75;4.10;;;29.70;37.30;;;;;;5072960;28;20566;-56
2022/04/21 12:56:38;;;;;;;4.47;3.97;;;29.80;37.80;;;;;;5072140;28;20116;-56
2022/04/21 12:59:03;;;;;;;5.28;3.90;;;28.80;36.00;;;;;;5063851;28;20025;-56
2022/04/21 13:01:29;;;;;;;5.30;4.07;;;28.00;38.10;;;;;;5052721;28;20032;-55
2022/04/21 13:03:59;;;;;;;6.50;4.40;;;27.90;36.70;;;;;;5051163;28;20024;-56
2022/04/21 13:06:29;;;;;;;5.88;3.75;;;26.70;37.80;;;;;;5050511;28;20114;-56
2022/04/21 13:08:58;;;;;;;6.35;4.30;;;27.20;40.40;;;;;;5049092;28;20477;-56
2022/04/21 13:11:24;;;;;;;8.77;3.90;;;28.20;39.00;;;;;;5052979;28;20033;-55
2022/04/21 13:13:51;;;;;;;4.07;3.30;;;28.40;36.80;;;;;;5051278;28;20114;-54
2022/04/21 13:16:18;;;;;;;3.75;3.03;;;29.00;37.20;;;;;;5050605;28;20037;-55
2022/04/21 13:18:44;;;;;;;;;;;29.80;36.90;;;;;;5052248;28;20516;-55
2022/04/21 13:23:55;;;;;;;3.13;2.50;;;28.70;35.10;;;;;;5049914;28;20114;-57
2022/04/21 13:26:24;;;;;;;8.82;3.40;;;28.20;34.90;;;;;;5051848;28;20035;-55
2022/04/21 13:28:50;;;;;;;3.97;3.17;;;28.10;34.80;;;;;;5068919;28;20031;-55
2022/04/21 13:33:59;;;;;;;4.00;2.38;;;29.60;35.60;;;;;;5037590;28;20071;-55
2022/04/21 13:36:25;;;;;;;2.37;2.17;;;29.80;33.90;;;;;;5034025;28;20072;-55
2022/04/21 13:38:51;;;;;;;5.77;2.43;;;29.90;35.10;;;;;;5052162;28;20473;-55
2022/04/21 13:41:20;;;;;;;2.50;2.30;;;30.40;33.80;;;;;;5050977;28;20500;-55
2022/04/21 13:43:46;;;;;;;3.28;2.05;;;30.50;34.20;;;;;;5051847;28;20051;-55